This is the latest recevied weather packets stored in our database for station/object N5VIS. If no packets are shown the sender has not sent any weather packets the latest 10 day(s).
| Time | Temp. | Humidity | Pressure | Rain* | Wind** | Luminosity | Snow |
|---|---|---|---|---|---|---|---|
| 1777836417 | 25.56° C | 35% | 1019.9 hPa | 0 mm | - | - | - |
| 1777836112 | 25.56° C | 33% | 1019.7 hPa | 0 mm | - | - | - |
| 1777835809 | 25.56° C | 33% | 1019.9 hPa | 0 mm | - | - | - |
| 1777835507 | 25° C | 34% | 1020.2 hPa | 0 mm | - | - | - |
| 1777835203 | 25° C | 35% | 1020.2 hPa | 0 mm | - | - | - |
| 1777834900 | 25° C | 38% | 1020.2 hPa | 0 mm | - | - | - |
| 1777834597 | 25.56° C | 33% | 1020.4 hPa | 0 mm | - | - | - |
| 1777834292 | 25° C | 34% | 1020.4 hPa | 0 mm | - | - | - |
| 1777833987 | 25° C | 31% | 1020.5 hPa | 0 mm | - | - | - |
| 1777833684 | 24.44° C | 35% | 1020.5 hPa | 0 mm | - | - | - |
| 1777833381 | 25° C | 32% | 1020.5 hPa | 0 mm | - | - | - |
| 1777833078 | 24.44° C | 35% | 1020.8 hPa | 0 mm | - | - | - |
| 1777832776 | 24.44° C | 34% | 1020.9 hPa | 0 mm | - | - | - |
| 1777832474 | 24.44° C | 35% | 1020.9 hPa | 0 mm | - | - | - |
| 1777832171 | 24.44° C | 36% | 1020.9 hPa | 0 mm | - | - | - |
| 1777831867 | 25° C | 33% | 1020.8 hPa | 0 mm | - | - | - |
| 1777831564 | 23.89° C | 36% | 1020.7 hPa | 0 mm | - | - | - |
| 1777831262 | 25° C | 35% | 1020.9 hPa | 0 mm | - | - | - |
| 1777830959 | 24.44° C | 35% | 1020.9 hPa | 0 mm | - | - | - |
| 1777830656 | 23.89° C | 35% | 1020.9 hPa | 0 mm | - | - | - |
| 1777830353 | 24.44° C | 33% | 1020.9 hPa | 0 mm | - | - | - |
| 1777830049 | 23.89° C | 37% | 1020.9 hPa | 0 mm | - | - | - |
| 1777829744 | 23.89° C | 36% | 1020.8 hPa | 0 mm | - | - | - |
| 1777829441 | 23.89° C | 34% | 1021 hPa | 0 mm | - | - | - |
| 1777829139 | 23.89° C | 37% | 1021.1 hPa | 0 mm | - | - | - |
* Rain latest hour (hover to see other rain measurements)
** Current wind speed in m/s (hover to see current wind gust speed)